Terminal Aerodrome Forecast
Issued by NWS Norman, OK

Home | Current Version | Previous Version | Text Only | Print | Product List | Glossary On
Versions: 1 2 3 4 5 6 7 8 9 10 11 12 13 14 15 16 17 18 19 20 21 22 23 24 25 26
000
FTUS44 KOUN 251137
TAFOKC
TAF
KOKC 251137Z 2512/2612 17012KT P6SM BKN008
     FM251400 17013G20KT P6SM BKN015
     FM251900 17013G20KT P6SM BKN025
     FM252100 17012G20KT 5SM -TSRA BR SCT015 OVC040CB
      TEMPO 2521/2523 23020G34KT 1SM +TSRA SCT008 OVC015CB
     FM252300 15007KT P6SM FEW007 BKN150=

USA.gov is the U.S. government's official web portal to all federal, state and local government web resources and services.